Time;durP1;ratioP1;P1;durP2;ratioP2;P2;SDS_P1;SDS_P2;PMS_P1;PMS_P2;Temp;Humidity;BMP_temperature;BMP_pressure;BME280_temperature;BME280_humidity;BME280_pressure;Samples;Min_cycle;Max_cycle;Signal;HPM_P1;HPM_P2
2023/07/21 00:00:30;;;;;;;1.38;0.80;;;17.00;99.90;;;;;;5027893;28;20102;-81
2023/07/21 00:02:57;;;;;;;1.48;0.90;;;17.00;99.90;;;;;;5032378;28;20060;-80
2023/07/21 00:05:24;;;;;;;1.48;0.95;;;16.90;99.90;;;;;;5027639;28;20432;-80
2023/07/21 00:07:51;;;;;;;1.80;0.90;;;16.80;99.90;;;;;;5052337;28;20158;-80
2023/07/21 00:10:18;;;;;;;0.85;0.70;;;16.80;99.90;;;;;;5044502;28;20076;-81
2023/07/21 00:12:48;;;;;;;1.25;0.90;;;16.70;99.90;;;;;;5026966;28;20403;-81
2023/07/21 00:15:17;;;;;;;1.70;1.10;;;16.60;99.90;;;;;;5028608;28;20052;-80
2023/07/21 00:17:46;;;;;;;1.77;1.08;;;16.50;99.90;;;;;;5058843;28;20049;-80
2023/07/21 00:20:21;;;;;;;1.63;0.90;;;16.40;99.90;;;;;;5012371;28;20056;-80
2023/07/21 00:22:49;;;;;;;1.60;0.90;;;16.40;99.90;;;;;;5029626;28;20412;-80
2023/07/21 00:25:16;;;;;;;1.55;1.10;;;16.30;99.90;;;;;;5027669;28;20090;-80
2023/07/21 00:27:43;;;;;;;1.63;1.05;;;16.20;99.90;;;;;;5011020;28;20067;-81
2023/07/21 00:30:11;;;;;;;1.55;1.27;;;16.20;99.90;;;;;;5027653;28;20142;-80
2023/07/21 00:32:39;;;;;;;1.23;0.85;;;16.10;99.90;;;;;;5032163;28;20063;-80
2023/07/21 00:35:08;;;;;;;1.35;0.85;;;16.10;99.90;;;;;;5011666;28;20071;-80
2023/07/21 00:37:36;;;;;;;0.95;0.80;;;16.10;99.90;;;;;;5021792;28;20072;-80
2023/07/21 00:40:05;;;;;;;2.88;1.10;;;16.10;1.00;;;;;;5027947;28;20048;-80
2023/07/21 00:42:32;;;;;;;1.50;0.93;;;16.00;1.00;;;;;;5010709;28;20131;-80
2023/07/21 00:44:59;;;;;;;0.98;0.75;;;16.00;1.00;;;;;;5023635;28;20575;-80
2023/07/21 00:47:27;;;;;;;1.05;0.82;;;16.00;1.00;;;;;;5006467;28;20056;-80
2023/07/21 00:49:54;;;;;;;1.27;1.00;;;15.90;1.00;;;;;;5014713;28;20106;-79
2023/07/21 00:52:21;;;;;;;1.35;1.08;;;15.90;1.00;;;;;;5027349;28;20467;-81
2023/07/21 00:54:48;;;;;;;1.25;1.00;;;15.80;1.00;;;;;;5043170;28;20048;-81
2023/07/21 00:57:20;;;;;;;2.00;1.20;;;15.90;1.00;;;;;;5034790;28;20053;-79
2023/07/21 00:59:47;;;;;;;2.05;1.33;;;15.80;1.00;;;;;;5010940;28;20063;-80
2023/07/21 01:02:14;;;;;;;1.95;1.30;;;15.90;1.00;;;;;;5010747;28;20056;-80
2023/07/21 01:04:41;;;;;;;2.35;1.42;;;15.80;1.00;;;;;;5024733;28;20048;-80
2023/07/21 01:07:09;;;;;;;1.95;1.30;;;15.80;1.00;;;;;;4974404;28;20060;-79
2023/07/21 01:09:36;;;;;;;2.53;1.73;;;15.80;99.90;;;;;;4996715;28;20058;-81
2023/07/21 01:12:05;;;;;;;2.08;1.27;;;15.80;99.90;;;;;;5017364;28;20052;-81
2023/07/21 01:14:32;;;;;;;2.25;1.52;;;15.80;99.90;;;;;;5004088;28;20088;-81
2023/07/21 01:17:00;;;;;;;1.50;1.20;;;15.80;99.90;;;;;;4990623;28;20118;-81
2023/07/21 01:19:27;;;;;;;2.20;1.40;;;15.80;99.90;;;;;;4990824;28;20494;-81
2023/07/21 01:22:17;;;;;;;2.53;1.65;;;15.80;99.90;;;;;;4990419;28;20390;-81
2023/07/21 01:25:19;;;;;;;1.77;1.33;;;15.70;99.90;;;;;;5024554;28;20045;-80
2023/07/21 01:27:47;;;;;;;1.65;1.20;;;15.70;99.90;;;;;;5022141;28;20072;-80
2023/07/21 01:30:16;;;;;;;2.40;1.45;;;15.60;99.90;;;;;;4996855;28;20214;-80
2023/07/21 01:32:44;;;;;;;2.28;1.33;;;15.60;99.90;;;;;;4991760;28;20266;-80
2023/07/21 01:35:11;;;;;;;2.25;1.52;;;15.50;99.90;;;;;;4974786;28;20042;-81
2023/07/21 01:37:40;;;;;;;2.17;1.30;;;15.40;1.00;;;;;;4990627;28;20065;-81
2023/07/21 01:40:08;;;;;;;2.88;1.60;;;15.40;1.00;;;;;;4991061;28;20048;-80
2023/07/21 01:42:36;;;;;;;1.40;1.10;;;15.30;1.00;;;;;;5027994;28;20113;-81
2023/07/21 01:45:04;;;;;;;1.80;1.25;;;15.20;1.00;;;;;;5011493;28;20479;-80
2023/07/21 01:47:32;;;;;;;1.83;1.40;;;15.20;1.00;;;;;;5035755;28;20055;-80
2023/07/21 01:49:59;;;;;;;2.67;1.70;;;15.20;1.00;;;;;;5046331;28;20052;-81
2023/07/21 01:52:30;;;;;;;2.53;1.77;;;15.20;99.90;;;;;;5029790;28;20132;-80
2023/07/21 01:55:01;;;;;;;2.72;1.95;;;15.20;99.90;;;;;;5013749;28;20064;-80
2023/07/21 01:57:31;;;;;;;3.05;2.20;;;15.30;99.90;;;;;;5029967;28;20052;-80
2023/07/21 01:59:59;;;;;;;2.58;2.05;;;15.30;99.90;;;;;;5030104;28;20044;-80
2023/07/21 02:02:27;;;;;;;2.85;2.22;;;15.30;99.90;;;;;;5029675;28;20048;-80
2023/07/21 02:04:53;;;;;;;3.10;2.30;;;15.30;99.90;;;;;;5012941;28;20053;-80
2023/07/21 02:07:20;;;;;;;3.30;2.45;;;15.40;99.90;;;;;;5013311;28;20052;-80
2023/07/21 02:09:51;;;;;;;4.13;2.78;;;15.40;99.90;;;;;;5013115;28;20097;-80
2023/07/21 02:12:18;;;;;;;3.88;2.72;;;15.40;99.90;;;;;;5045482;28;20133;-80
2023/07/21 02:14:45;;;;;;;3.80;3.10;;;15.40;99.90;;;;;;5045588;28;20455;-80
2023/07/21 02:17:12;;;;;;;3.60;2.45;;;15.40;99.90;;;;;;5012476;28;20052;-79
2023/07/21 02:19:39;;;;;;;3.30;2.35;;;15.40;99.90;;;;;;5012606;28;20129;-80
2023/07/21 02:22:06;;;;;;;3.95;2.40;;;15.30;99.90;;;;;;5026954;28;20049;-81
2023/07/21 02:24:33;;;;;;;2.95;2.30;;;15.30;99.90;;;;;;5009802;28;20452;-80
2023/07/21 02:27:00;;;;;;;2.83;2.35;;;15.30;99.90;;;;;;5014053;28;20116;-80
2023/07/21 02:29:27;;;;;;;3.67;2.50;;;15.20;99.90;;;;;;5009114;28;20049;-80
2023/07/21 02:31:54;;;;;;;2.75;2.03;;;15.20;99.90;;;;;;5009062;28;20049;-80
2023/07/21 02:34:21;;;;;;;3.38;2.45;;;15.20;99.90;;;;;;5029552;28;20876;-80
2023/07/21 02:36:48;;;;;;;2.97;2.30;;;15.20;99.90;;;;;;5013114;28;20388;-80
2023/07/21 02:39:15;;;;;;;3.15;2.38;;;15.10;99.90;;;;;;5055619;28;20566;-80
2023/07/21 02:41:42;;;;;;;2.97;2.20;;;15.10;99.90;;;;;;5047959;28;20048;-80
2023/07/21 02:44:09;;;;;;;3.88;2.20;;;15.10;99.90;;;;;;5028432;28;20158;-80
2023/07/21 02:46:36;;;;;;;3.20;2.25;;;15.10;99.90;;;;;;5029194;28;20625;-80
2023/07/21 02:49:03;;;;;;;4.03;2.95;;;15.10;99.90;;;;;;5021180;28;20110;-80
2023/07/21 02:51:30;;;;;;;4.18;2.80;;;15.10;99.90;;;;;;5016590;28;20056;-80
2023/07/21 02:53:57;;;;;;;3.42;2.72;;;15.10;99.90;;;;;;5049400;28;20118;-80
2023/07/21 02:56:23;;;;;;;3.75;2.75;;;15.00;99.90;;;;;;5032663;28;20140;-80
2023/07/21 02:58:50;;;;;;;2.65;2.03;;;15.10;99.90;;;;;;5031899;28;20057;-80
2023/07/21 03:01:18;;;;;;;3.00;2.60;;;15.00;99.90;;;;;;5033059;28;20052;-80
2023/07/21 03:03:45;;;;;;;4.25;2.85;;;15.00;99.90;;;;;;5035414;28;20041;-79
2023/07/21 03:06:12;;;;;;;4.35;2.78;;;15.00;99.90;;;;;;5049708;28;20082;-80
2023/07/21 03:08:38;;;;;;;3.47;2.50;;;15.00;99.90;;;;;;5016639;28;20122;-79
2023/07/21 03:11:06;;;;;;;3.30;2.47;;;14.90;99.90;;;;;;5016694;28;20508;-81
2023/07/21 03:13:33;;;;;;;3.70;2.67;;;14.90;99.90;;;;;;5050485;28;20048;-80
2023/07/21 03:16:00;;;;;;;3.10;2.45;;;14.90;99.90;;;;;;5032740;28;20079;-80
2023/07/21 03:18:27;;;;;;;3.22;2.40;;;14.90;99.90;;;;;;5031589;28;20057;-80
2023/07/21 03:20:58;;;;;;;3.13;2.35;;;14.90;99.90;;;;;;5049032;28;20179;-80
2023/07/21 03:23:25;;;;;;;2.60;2.10;;;14.90;99.90;;;;;;5015996;28;20113;-81
2023/07/21 03:25:52;;;;;;;2.88;2.42;;;14.90;99.90;;;;;;5032729;28;20068;-80
2023/07/21 03:28:21;;;;;;;2.75;2.13;;;14.90;99.90;;;;;;5009113;28;20107;-80
2023/07/21 03:31:01;;;;;;;2.80;2.20;;;14.90;99.90;;;;;;4979902;28;20053;-80
2023/07/21 03:33:29;;;;;;;2.67;2.00;;;14.90;99.90;;;;;;4987932;28;20050;-79
2023/07/21 03:36:02;;;;;;;3.38;2.08;;;14.90;99.90;;;;;;5017710;28;20144;-80
2023/07/21 03:38:31;;;;;;;3.50;2.10;;;14.80;99.90;;;;;;5033985;28;20052;-81
2023/07/21 03:41:05;;;;;;;2.80;2.20;;;14.80;99.90;;;;;;5033569;28;20049;-80
2023/07/21 03:43:32;;;;;;;2.97;2.10;;;14.80;99.90;;;;;;5017033;28;20056;-80
2023/07/21 03:46:00;;;;;;;2.60;2.10;;;14.70;99.90;;;;;;5017851;28;20052;-81
2023/07/21 03:48:27;;;;;;;2.70;1.88;;;14.70;99.90;;;;;;5016945;28;20091;-80
2023/07/21 03:50:57;;;;;;;3.13;2.55;;;14.60;99.90;;;;;;5033935;28;20049;-80
2023/07/21 03:53:28;;;;;;;2.78;2.03;;;14.50;99.90;;;;;;5033574;28;20059;-80
2023/07/21 03:56:03;;;;;;;2.63;2.00;;;14.50;99.90;;;;;;5035954;28;20056;-81
2023/07/21 03:58:29;;;;;;;3.03;2.20;;;14.40;99.90;;;;;;5032620;28;20083;-81
2023/07/21 04:00:58;;;;;;;2.72;2.00;;;14.40;99.90;;;;;;5033342;28;20056;-79
2023/07/21 04:03:25;;;;;;;3.08;2.47;;;14.40;99.90;;;;;;5017103;28;20686;-80
2023/07/21 04:05:52;;;;;;;3.55;2.40;;;14.30;99.90;;;;;;5017863;28;20100;-80
2023/07/21 04:08:19;;;;;;;3.03;2.35;;;14.20;99.90;;;;;;5033231;28;20052;-80
2023/07/21 04:10:46;;;;;;;2.70;2.25;;;14.20;99.90;;;;;;5049391;28;20423;-80
2023/07/21 04:13:13;;;;;;;3.10;2.50;;;14.10;99.90;;;;;;5015886;28;20063;-80
2023/07/21 04:15:40;;;;;;;3.28;2.28;;;14.10;99.90;;;;;;5020842;28;20059;-80
2023/07/21 04:18:07;;;;;;;2.90;2.17;;;14.10;99.90;;;;;;5032734;28;20095;-80
2023/07/21 04:20:34;;;;;;;3.65;2.42;;;14.10;99.90;;;;;;5049812;28;20048;-80
2023/07/21 04:23:02;;;;;;;3.00;2.25;;;14.10;99.90;;;;;;5055163;28;20563;-80
2023/07/21 04:25:29;;;;;;;2.85;2.28;;;14.00;99.90;;;;;;5033145;28;20055;-80
2023/07/21 04:27:55;;;;;;;2.05;1.52;;;14.10;99.90;;;;;;5015997;28;20048;-80
2023/07/21 04:30:22;;;;;;;2.20;1.67;;;14.10;99.90;;;;;;5048925;28;20532;-80
2023/07/21 04:32:50;;;;;;;2.63;1.85;;;14.10;99.90;;;;;;5030464;28;20060;-80
2023/07/21 04:35:17;;;;;;;2.72;2.08;;;14.10;99.90;;;;;;5049518;28;20055;-80
2023/07/21 04:37:44;;;;;;;2.50;1.88;;;14.00;99.90;;;;;;5016238;28;20114;-80
2023/07/21 04:40:11;;;;;;;2.63;2.00;;;14.00;99.90;;;;;;5016502;28;20121;-80
2023/07/21 04:42:39;;;;;;;2.67;1.75;;;14.00;99.90;;;;;;5031811;28;20483;-80
2023/07/21 04:45:11;;;;;;;2.42;1.80;;;14.00;99.90;;;;;;5016579;28;20045;-79
2023/07/21 04:47:40;;;;;;;2.70;1.80;;;13.90;1.00;;;;;;5010594;28;20506;-80
2023/07/21 04:50:07;;;;;;;2.25;1.90;;;14.00;1.00;;;;;;4990107;28;20045;-80
2023/07/21 04:52:36;;;;;;;2.75;1.85;;;14.00;1.00;;;;;;4994846;28;20584;-80
2023/07/21 04:55:05;;;;;;;3.17;2.20;;;13.90;99.90;;;;;;5017913;28;20094;-80
2023/07/21 04:57:34;;;;;;;2.47;1.85;;;14.00;99.90;;;;;;5004139;28;20059;-80
2023/07/21 05:00:01;;;;;;;2.30;2.03;;;14.00;99.90;;;;;;5024168;28;20075;-81
2023/07/21 05:02:30;;;;;;;2.80;2.10;;;14.00;99.90;;;;;;5006706;28;20057;-81
2023/07/21 05:04:57;;;;;;;2.72;1.92;;;14.10;99.90;;;;;;5001218;28;20056;-80
2023/07/21 05:07:25;;;;;;;2.40;1.70;;;14.10;99.90;;;;;;4994687;28;20072;-81
2023/07/21 05:09:55;;;;;;;2.70;1.80;;;14.20;99.90;;;;;;5007692;28;20133;-80
2023/07/21 05:12:25;;;;;;;2.53;1.80;;;14.30;99.90;;;;;;5011429;28;20048;-80
2023/07/21 05:14:53;;;;;;;2.10;1.60;;;14.40;99.90;;;;;;5005259;28;20049;-80
2023/07/21 05:17:20;;;;;;;2.55;2.03;;;14.40;99.90;;;;;;4991990;28;20053;-80
2023/07/21 05:19:47;;;;;;;2.90;2.15;;;14.50;96.80;;;;;;5007714;28;20102;-80
2023/07/21 05:22:14;;;;;;;2.33;1.70;;;14.60;90.50;;;;;;5013706;28;20065;-81
2023/07/21 05:24:43;;;;;;;2.45;1.67;;;14.60;60.00;;;;;;4988935;28;20057;-81
2023/07/21 05:27:10;;;;;;;2.80;2.03;;;14.60;53.10;;;;;;5021715;28;20689;-80
2023/07/21 05:29:37;;;;;;;3.42;2.38;;;14.70;33.00;;;;;;5007835;28;20064;-80
2023/07/21 05:32:05;;;;;;;3.63;2.55;;;14.70;29.20;;;;;;4987779;28;20319;-81
2023/07/21 05:34:33;;;;;;;3.42;2.78;;;14.70;23.70;;;;;;5001810;28;20045;-81
2023/07/21 05:37:01;;;;;;;3.00;2.38;;;14.70;27.50;;;;;;5022485;28;20049;-82
2023/07/21 05:39:29;;;;;;;3.20;2.28;;;14.70;19.40;;;;;;4998697;28;20056;-79
2023/07/21 05:41:59;;;;;;;3.55;2.60;;;14.80;15.10;;;;;;5007135;28;20411;-79
2023/07/21 05:44:26;;;;;;;4.90;3.28;;;14.80;19.40;;;;;;5015137;28;20053;-81
2023/07/21 05:46:53;;;;;;;4.10;2.80;;;14.80;20.00;;;;;;4990440;28;20446;-80
2023/07/21 05:49:21;;;;;;;3.28;2.85;;;14.80;34.00;;;;;;5019466;28;20059;-81
2023/07/21 05:51:48;;;;;;;3.65;2.88;;;14.80;18.70;;;;;;5007508;28;20056;-81
2023/07/21 05:54:15;;;;;;;4.13;3.30;;;14.90;44.10;;;;;;5019161;28;20053;-81
2023/07/21 05:56:42;;;;;;;3.47;2.53;;;14.90;45.20;;;;;;4973261;28;20496;-80
2023/07/21 05:59:09;;;;;;;3.42;2.65;;;15.00;28.50;;;;;;4996524;28;20711;-79
2023/07/21 06:01:36;;;;;;;3.50;2.63;;;15.00;34.80;;;;;;5026947;28;20052;-80
2023/07/21 06:04:04;;;;;;;3.72;2.78;;;15.10;44.50;;;;;;4989486;28;20057;-79
2023/07/21 06:06:31;;;;;;;3.35;2.75;;;15.20;51.80;;;;;;4971636;28;20371;-81
2023/07/21 06:08:59;;;;;;;3.00;2.20;;;15.30;39.30;;;;;;5019570;28;20046;-81
2023/07/21 06:11:26;;;;;;;3.17;2.40;;;15.40;20.60;;;;;;5005864;28;20053;-80
2023/07/21 06:13:56;;;;;;;2.60;2.22;;;15.40;1.00;;;;;;5009605;28;20060;-81
2023/07/21 06:16:23;;;;;;;3.70;2.85;;;15.50;1.00;;;;;;4996046;28;20139;-80
2023/07/21 06:18:52;;;;;;;3.30;2.80;;;15.60;1.00;;;;;;5014529;28;20055;-81
2023/07/21 06:21:22;;;;;;;3.17;2.47;;;15.70;1.00;;;;;;5003462;28;20049;-80
2023/07/21 06:23:51;;;;;;;2.70;2.33;;;15.80;1.00;;;;;;5008052;28;20049;-81
2023/07/21 06:26:19;;;;;;;3.47;3.00;;;15.90;1.00;;;;;;5007697;28;20041;-81
2023/07/21 06:28:46;;;;;;;3.63;2.92;;;16.10;1.00;;;;;;5006179;28;22197;-81
2023/07/21 06:31:14;;;;;;;3.03;2.63;;;16.20;1.00;;;;;;4994315;28;20547;-80
2023/07/21 06:33:41;;;;;;;3.13;2.47;;;16.20;1.00;;;;;;4998150;28;20059;-81
2023/07/21 06:36:08;;;;;;;3.55;2.83;;;16.40;1.00;;;;;;5010586;28;20114;-81
2023/07/21 06:38:35;;;;;;;3.42;2.75;;;16.40;1.00;;;;;;5015435;28;20064;-80
2023/07/21 06:41:04;;;;;;;3.60;2.67;;;16.60;1.00;;;;;;4994431;28;20067;-80
2023/07/21 06:43:34;;;;;;;3.17;2.60;;;16.60;1.00;;;;;;5008860;28;20057;-80
2023/07/21 06:46:03;;;;;;;3.70;2.35;;;16.70;1.00;;;;;;5005989;28;20096;-81
2023/07/21 06:48:31;;;;;;;3.35;2.60;;;16.70;1.00;;;;;;4991595;28;20095;-80
2023/07/21 06:50:58;;;;;;;3.85;3.40;;;16.70;1.00;;;;;;5020229;28;20055;-81
2023/07/21 06:53:25;;;;;;;3.60;3.08;;;16.50;1.00;;;;;;5011902;28;20137;-81
2023/07/21 06:55:54;;;;;;;3.60;3.15;;;16.50;1.00;;;;;;5024051;28;20040;-80
2023/07/21 06:58:21;;;;;;;3.85;2.92;;;16.50;1.00;;;;;;5003430;28;20064;-80
2023/07/21 07:00:48;;;;;;;3.30;2.45;;;16.60;1.00;;;;;;4990563;28;20061;-80
2023/07/21 07:03:15;;;;;;;2.92;2.53;;;16.70;1.00;;;;;;4993599;28;20058;-81
2023/07/21 07:05:45;;;;;;;2.92;2.42;;;16.80;1.00;;;;;;5008077;28;20490;-81
2023/07/21 07:08:12;;;;;;;3.00;2.70;;;16.90;1.00;;;;;;5009514;28;20053;-81
2023/07/21 07:10:39;;;;;;;2.50;1.95;;;17.10;1.00;;;;;;5028904;28;20092;-80
2023/07/21 07:13:06;;;;;;;3.28;2.53;;;17.20;1.00;;;;;;5000545;28;20042;-81
2023/07/21 07:15:34;;;;;;;2.97;2.17;;;17.30;1.00;;;;;;5009266;28;20049;-80
2023/07/21 07:18:01;;;;;;;2.53;2.00;;;17.40;1.00;;;;;;4996702;28;20450;-80
2023/07/21 07:20:30;;;;;;;2.42;2.22;;;17.30;1.00;;;;;;4991547;28;20053;-80
2023/07/21 07:22:57;;;;;;;2.95;2.17;;;17.30;1.00;;;;;;4987727;28;20048;-81
2023/07/21 07:25:24;;;;;;;2.50;1.98;;;17.30;1.00;;;;;;4997301;28;20133;-82
2023/07/21 07:27:52;;;;;;;2.97;2.65;;;17.20;1.00;;;;;;4998144;28;20388;-81
2023/07/21 07:30:20;;;;;;;3.50;3.00;;;17.10;1.00;;;;;;5012353;28;20099;-80
2023/07/21 07:32:48;;;;;;;3.20;2.65;;;17.10;1.00;;;;;;5012255;28;20518;-80
2023/07/21 07:35:16;;;;;;;3.42;2.70;;;17.00;1.00;;;;;;5002730;28;20651;-78
2023/07/21 07:37:43;;;;;;;2.55;2.00;;;17.00;1.00;;;;;;5010976;28;20051;-79
2023/07/21 07:40:11;;;;;;;3.00;2.67;;;17.00;1.00;;;;;;5010689;28;20049;-80
2023/07/21 07:42:39;;;;;;;3.30;2.45;;;17.00;1.00;;;;;;5017037;28;20448;-79
2023/07/21 07:45:06;;;;;;;2.80;2.42;;;17.00;1.00;;;;;;5000086;28;20042;-80
2023/07/21 07:47:34;;;;;;;2.90;2.50;;;17.00;1.00;;;;;;4988288;28;20132;-80
2023/07/21 07:50:02;;;;;;;3.15;2.85;;;16.90;1.00;;;;;;4989655;28;20099;-80
2023/07/21 07:52:29;;;;;;;2.83;2.17;;;16.90;1.00;;;;;;4993482;28;20057;-80
2023/07/21 07:54:56;;;;;;;3.47;2.53;;;16.90;1.00;;;;;;5001045;28;20788;-81
2023/07/21 07:57:26;;;;;;;2.90;2.40;;;16.90;1.00;;;;;;4979324;28;20103;-81
2023/07/21 07:59:54;;;;;;;3.47;2.50;;;17.00;1.00;;;;;;4988908;28;20049;-81
2023/07/21 08:02:21;;;;;;;3.83;3.22;;;17.00;1.00;;;;;;5010026;28;20403;-80
2023/07/21 08:04:48;;;;;;;5.28;3.42;;;17.00;1.00;;;;;;5029555;28;20513;-81
2023/07/21 08:07:16;;;;;;;2.90;2.40;;;17.00;1.00;;;;;;5018521;28;20049;-81
2023/07/21 08:09:43;;;;;;;2.70;2.35;;;17.10;1.00;;;;;;5019725;28;20396;-80
2023/07/21 08:12:10;;;;;;;3.45;2.45;;;17.20;1.00;;;;;;5007536;28;20056;-81
2023/07/21 08:14:37;;;;;;;3.25;2.95;;;17.30;1.00;;;;;;5027221;28;20503;-81
2023/07/21 08:17:04;;;;;;;2.90;2.40;;;17.40;1.00;;;;;;4996195;28;20052;-81
2023/07/21 08:19:32;;;;;;;3.10;2.60;;;17.50;1.00;;;;;;5009965;28;20561;-80
2023/07/21 08:22:05;;;;;;;3.42;2.30;;;17.60;1.00;;;;;;5016666;28;20060;-79
2023/07/21 08:24:32;;;;;;;3.05;2.50;;;17.50;1.00;;;;;;5002410;28;20081;-79
2023/07/21 08:26:59;;;;;;;3.45;2.50;;;17.60;1.00;;;;;;4989416;28;20743;-80
2023/07/21 08:29:26;;;;;;;3.45;3.05;;;17.70;1.00;;;;;;5001467;28;20050;-79
2023/07/21 08:31:53;;;;;;;3.67;3.10;;;17.70;1.00;;;;;;4999016;28;20129;-80
2023/07/21 08:34:20;;;;;;;4.57;3.20;;;17.80;1.00;;;;;;5004794;28;20131;-80
2023/07/21 08:36:47;;;;;;;3.70;3.08;;;18.00;1.00;;;;;;5025536;28;20045;-80
2023/07/21 08:39:21;;;;;;;4.63;2.95;;;18.00;1.00;;;;;;5018503;28;20536;-80
2023/07/21 08:41:49;;;;;;;3.28;2.75;;;18.20;1.00;;;;;;5011792;28;20050;-81
2023/07/21 08:44:16;;;;;;;3.22;2.78;;;18.40;1.00;;;;;;5015417;28;20049;-82
2023/07/21 08:46:43;;;;;;;3.50;2.80;;;18.50;1.00;;;;;;4990576;28;20440;-79
2023/07/21 08:49:10;;;;;;;2.90;2.42;;;18.60;1.00;;;;;;4984986;28;20122;-80
2023/07/21 08:51:36;;;;;;;2.88;2.25;;;18.80;1.00;;;;;;4990826;28;20045;-80
2023/07/21 08:54:03;;;;;;;3.33;3.03;;;19.00;1.00;;;;;;5021016;28;20646;-80
2023/07/21 08:56:30;;;;;;;2.90;2.60;;;19.10;1.00;;;;;;5030719;28;20525;-81
2023/07/21 08:58:57;;;;;;;2.75;2.30;;;19.10;1.00;;;;;;5009341;28;20068;-80
2023/07/21 09:01:24;;;;;;;3.58;2.85;;;19.10;1.00;;;;;;4994428;28;20045;-80
2023/07/21 09:03:51;;;;;;;6.25;3.08;;;19.20;1.00;;;;;;5005583;28;20531;-80
2023/07/21 09:06:18;;;;;;;3.90;3.47;;;19.20;1.00;;;;;;5013138;28;20141;-84
2023/07/21 09:08:46;;;;;;;4.00;3.10;;;19.30;1.00;;;;;;4994693;28;20453;-84
2023/07/21 09:11:14;;;;;;;3.15;2.75;;;19.40;1.00;;;;;;4994075;28;20099;-86
2023/07/21 09:13:41;;;;;;;3.08;2.72;;;19.30;1.00;;;;;;4999057;28;20049;-85
2023/07/21 09:16:08;;;;;;;3.78;3.00;;;19.40;1.00;;;;;;5005752;28;20049;-84
2023/07/21 09:18:40;;;;;;;3.10;2.58;;;19.40;1.00;;;;;;5002625;28;20046;-87
2023/07/21 09:21:16;;;;;;;2.90;2.55;;;19.50;1.00;;;;;;4990778;28;20053;-86
2023/07/21 09:23:43;;;;;;;2.80;2.40;;;19.50;1.00;;;;;;4988863;28;20045;-87
2023/07/21 09:26:10;;;;;;;3.55;2.58;;;19.70;1.00;;;;;;4996768;28;20045;-81
2023/07/21 09:28:44;;;;;;;4.72;3.53;;;19.80;1.00;;;;;;5012304;28;20061;-79
2023/07/21 09:31:12;;;;;;;3.70;3.10;;;19.90;1.00;;;;;;4990961;28;20078;-79
2023/07/21 09:33:44;;;;;;;4.03;3.35;;;19.90;1.00;;;;;;4970588;28;20065;-79
2023/07/21 09:36:13;;;;;;;4.78;3.35;;;19.80;1.00;;;;;;4979781;28;20505;-80
2023/07/21 09:38:40;;;;;;;4.20;2.88;;;19.70;1.00;;;;;;4971905;28;20064;-79
2023/07/21 09:41:22;;;;;;;4.10;2.47;;;19.80;1.00;;;;;;4991896;28;20674;-78
2023/07/21 09:43:49;;;;;;;3.00;2.50;;;20.00;1.00;;;;;;4980838;28;20056;-80
2023/07/21 09:46:16;;;;;;;3.13;2.80;;;20.10;1.00;;;;;;4975258;28;20060;-78
2023/07/21 09:48:44;;;;;;;4.50;4.05;;;20.30;1.00;;;;;;4972818;28;20077;-78
2023/07/21 09:51:12;;;;;;;4.00;3.50;;;20.30;1.00;;;;;;4971330;28;20184;-79
2023/07/21 09:53:40;;;;;;;3.42;3.13;;;20.50;1.00;;;;;;4982791;28;20072;-79
2023/07/21 09:56:07;;;;;;;3.58;2.85;;;20.60;1.00;;;;;;4978950;28;20888;-79
2023/07/21 09:59:13;;;;;;;3.45;2.85;;;20.60;1.00;;;;;;4980526;28;20055;-79
2023/07/21 10:01:39;;;;;;;3.45;3.10;;;20.60;1.00;;;;;;4937193;29;20676;-79
2023/07/21 10:04:06;;;;;;;4.43;4.03;;;20.20;1.00;;;;;;4943027;28;20058;-79
2023/07/21 10:06:34;;;;;;;3.38;2.95;;;20.00;1.00;;;;;;4918411;28;20045;-78
2023/07/21 10:09:01;;;;;;;3.25;2.80;;;20.10;1.00;;;;;;4970381;28;20058;-79
2023/07/21 10:11:28;;;;;;;2.72;2.38;;;20.10;1.00;;;;;;4979640;28;20081;-79
2023/07/21 10:13:55;;;;;;;2.72;2.30;;;20.40;1.00;;;;;;5011589;28;20053;-79
2023/07/21 10:16:22;;;;;;;2.63;2.17;;;20.60;1.00;;;;;;5007094;28;20120;-79
2023/07/21 10:19:08;;;;;;;2.90;2.42;;;20.80;1.00;;;;;;4982645;28;20058;-78
2023/07/21 10:21:49;;;;;;;3.30;2.38;;;20.90;1.00;;;;;;4982396;28;20064;-79
2023/07/21 10:24:24;;;;;;;2.55;2.35;;;21.00;1.00;;;;;;5001650;28;20725;-78
2023/07/21 10:27:01;;;;;;;3.83;2.92;;;21.10;1.00;;;;;;5007318;28;20045;-78
2023/07/21 10:29:28;;;;;;;3.55;2.70;;;21.10;1.00;;;;;;4995220;28;20053;-78
2023/07/21 10:31:56;;;;;;;2.60;2.35;;;21.10;1.00;;;;;;5030545;28;20057;-79
2023/07/21 10:34:25;;;;;;;3.38;2.95;;;21.20;1.00;;;;;;5023419;28;20159;-79
2023/07/21 10:36:52;;;;;;;3.15;2.70;;;21.40;1.00;;;;;;5037610;28;20056;-78
2023/07/21 10:39:24;;;;;;;2.80;2.47;;;21.60;1.00;;;;;;5023106;28;20206;-78
2023/07/21 10:42:01;;;;;;;3.08;1.90;;;21.80;1.00;;;;;;4986652;28;20168;-79
2023/07/21 10:44:47;;;;;;;2.55;2.15;;;22.10;1.00;;;;;;5013069;28;20478;-78
2023/07/21 10:47:16;;;;;;;2.90;2.28;;;22.20;1.00;;;;;;5012455;28;20052;-78
2023/07/21 10:49:44;;;;;;;2.80;2.40;;;22.20;1.00;;;;;;4991748;28;20050;-79
2023/07/21 10:52:11;;;;;;;2.85;2.55;;;22.00;1.00;;;;;;5010789;28;20536;-78
2023/07/21 10:54:38;;;;;;;3.28;2.90;;;21.80;1.00;;;;;;5011003;28;20048;-79
2023/07/21 10:57:05;;;;;;;3.22;2.60;;;21.60;1.00;;;;;;5049427;28;20059;-79
2023/07/21 10:59:33;;;;;;;2.80;2.30;;;21.70;1.00;;;;;;4997543;28;20056;-80
2023/07/21 11:02:00;;;;;;;2.78;2.13;;;21.80;1.00;;;;;;4983815;28;20156;-80
2023/07/21 11:04:27;;;;;;;2.10;1.90;;;22.00;1.00;;;;;;5003492;28;20674;-78
2023/07/21 11:06:55;;;;;;;2.85;2.28;;;22.10;1.00;;;;;;5009296;28;20221;-79
2023/07/21 11:09:23;;;;;;;2.35;1.75;;;22.10;1.00;;;;;;4992073;28;20053;-79
2023/07/21 11:11:54;;;;;;;2.42;1.90;;;22.30;1.00;;;;;;4995402;28;20060;-80
2023/07/21 11:14:25;;;;;;;2.15;1.80;;;22.40;1.00;;;;;;5009454;28;20143;-79
2023/07/21 11:16:55;;;;;;;2.58;2.08;;;22.60;1.00;;;;;;4991814;28;20053;-80
2023/07/21 11:19:24;;;;;;;1.48;1.33;;;22.80;1.00;;;;;;5040588;28;20522;-79
2023/07/21 11:21:51;;;;;;;1.98;1.77;;;23.20;1.00;;;;;;5026672;28;20048;-78
2023/07/21 11:24:25;;;;;;;1.80;1.52;;;23.20;1.00;;;;;;5043247;28;20064;-79
2023/07/21 11:27:05;;;;;;;2.92;2.03;;;23.60;1.00;;;;;;5042462;28;20109;-80
2023/07/21 11:29:40;;;;;;;1.95;1.52;;;23.50;1.00;;;;;;5029385;28;20052;-80
2023/07/21 11:32:22;;;;;;;2.38;1.75;;;23.20;1.00;;;;;;5010384;28;20076;-80
2023/07/21 11:34:58;;;;;;;2.08;1.58;;;23.00;1.00;;;;;;5043909;28;20063;-80
2023/07/21 11:37:38;;;;;;;1.80;1.50;;;22.80;1.00;;;;;;5018736;28;20468;-80
2023/07/21 11:40:14;;;;;;;2.15;1.60;;;22.60;1.00;;;;;;5012354;28;20083;-81
2023/07/21 11:42:51;;;;;;;2.03;1.48;;;23.00;1.00;;;;;;5043876;28;20094;-80
2023/07/21 11:45:33;;;;;;;1.80;1.30;;;23.50;1.00;;;;;;5029127;28;20298;-81
2023/07/21 11:48:03;;;;;;;1.63;1.20;;;23.80;1.00;;;;;;5018404;28;20063;-80
2023/07/21 11:50:30;;;;;;;1.85;1.52;;;24.20;1.00;;;;;;5040846;28;20133;-81
2023/07/21 11:52:58;;;;;;;2.22;1.45;;;24.60;1.00;;;;;;5010253;28;20414;-81
2023/07/21 11:55:25;;;;;;;2.20;1.63;;;24.70;1.00;;;;;;5006512;28;20493;-82
2023/07/21 11:57:53;;;;;;;2.17;1.83;;;24.60;1.00;;;;;;5019709;28;20049;-80
2023/07/21 12:00:20;;;;;;;1.80;1.33;;;24.90;1.00;;;;;;5021056;28;20624;-81
2023/07/21 12:02:46;;;;;;;1.85;1.45;;;24.60;1.00;;;;;;5041754;28;20924;-80
2023/07/21 12:05:13;;;;;;;1.60;1.40;;;24.90;1.00;;;;;;5009672;28;20137;-81
2023/07/21 12:07:42;;;;;;;2.60;1.80;;;25.30;1.00;;;;;;5042462;28;20064;-80
2023/07/21 12:10:09;;;;;;;3.25;1.60;;;24.90;1.00;;;;;;5026625;28;20561;-80
2023/07/21 12:12:37;;;;;;;2.00;1.60;;;24.30;1.00;;;;;;5040006;28;20059;-80
2023/07/21 12:15:06;;;;;;;1.67;1.48;;;23.90;1.00;;;;;;5025161;28;20110;-79
2023/07/21 12:17:33;;;;;;;2.25;1.55;;;23.40;1.00;;;;;;5009564;28;20156;-80
2023/07/21 12:20:00;;;;;;;2.00;1.40;;;23.20;1.00;;;;;;5041879;28;20324;-80
2023/07/21 12:22:27;;;;;;;1.73;1.38;;;22.90;1.00;;;;;;5041079;28;20408;-79
2023/07/21 12:24:53;;;;;;;1.85;1.58;;;22.70;1.00;;;;;;5041560;28;20480;-81
2023/07/21 12:27:20;;;;;;;2.05;1.58;;;22.60;1.00;;;;;;5054653;28;20138;-79
2023/07/21 12:29:47;;;;;;;1.92;1.48;;;22.70;1.00;;;;;;5059228;28;20163;-79
2023/07/21 12:32:14;;;;;;;2.00;1.23;;;22.90;1.00;;;;;;5048613;28;20060;-79
2023/07/21 12:34:42;;;;;;;2.08;1.42;;;23.30;1.00;;;;;;5041880;28;20052;-80
2023/07/21 12:37:09;;;;;;;1.58;1.30;;;23.40;1.00;;;;;;5059918;28;20080;-80
2023/07/21 12:39:36;;;;;;;1.75;1.35;;;23.20;1.00;;;;;;5041656;28;20083;-79
2023/07/21 12:42:03;;;;;;;1.27;1.10;;;22.90;1.00;;;;;;5059557;28;20436;-80
2023/07/21 12:44:30;;;;;;;1.77;1.05;;;22.70;1.00;;;;;;5028120;28;20219;-80
2023/07/21 12:46:57;;;;;;;1.40;1.20;;;22.60;1.00;;;;;;5005354;28;20503;-79
2023/07/21 12:49:25;;;;;;;1.27;1.10;;;22.50;1.00;;;;;;4999474;28;20508;-80
2023/07/21 12:51:53;;;;;;;1.98;1.27;;;22.50;1.00;;;;;;5025099;28;20067;-80
2023/07/21 12:54:19;;;;;;;1.30;1.08;;;22.70;1.00;;;;;;5041467;28;20048;-80
2023/07/21 12:56:46;;;;;;;1.52;1.20;;;22.60;1.00;;;;;;5008268;28;20084;-80
2023/07/21 12:59:13;;;;;;;1.60;1.20;;;22.40;1.00;;;;;;5032994;28;20114;-78